sensor_id;sensor_type;location;lat;lon;timestamp;temperature;humidity
6662;DHT22;3367;48.714;8.994;2023-01-16T00:01:40;2.00;99.90
6662;DHT22;3367;48.714;8.994;2023-01-16T00:04:08;2.00;95.20
6662;DHT22;3367;48.714;8.994;2023-01-16T00:06:34;2.00;98.80
6662;DHT22;3367;48.714;8.994;2023-01-16T00:09:02;2.00;78.00
6662;DHT22;3367;48.714;8.994;2023-01-16T00:11:29;2.10;55.90
6662;DHT22;3367;48.714;8.994;2023-01-16T00:13:56;2.10;2.40
6662;DHT22;3367;48.714;8.994;2023-01-16T00:16:23;2.20;1.00
6662;DHT22;3367;48.714;8.994;2023-01-16T00:18:50;2.30;1.00
6662;DHT22;3367;48.714;8.994;2023-01-16T00:21:18;2.30;1.00
6662;DHT22;3367;48.714;8.994;2023-01-16T00:23:45;2.30;1.00
6662;DHT22;3367;48.714;8.994;2023-01-16T00:26:12;2.30;1.00
6662;DHT22;3367;48.714;8.994;2023-01-16T00:28:39;2.30;1.00
6662;DHT22;3367;48.714;8.994;2023-01-16T00:31:06;2.30;1.00
6662;DHT22;3367;48.714;8.994;2023-01-16T00:33:33;2.20;1.00
6662;DHT22;3367;48.714;8.994;2023-01-16T00:36:00;2.20;1.00
6662;DHT22;3367;48.714;8.994;2023-01-16T00:38:28;2.20;1.00
6662;DHT22;3367;48.714;8.994;2023-01-16T00:40:56;2.20;1.00
6662;DHT22;3367;48.714;8.994;2023-01-16T00:43:23;2.30;1.00
6662;DHT22;3367;48.714;8.994;2023-01-16T00:45:50;2.30;1.00
6662;DHT22;3367;48.714;8.994;2023-01-16T00:48:16;2.20;1.00
6662;DHT22;3367;48.714;8.994;2023-01-16T00:50:43;2.20;1.00
6662;DHT22;3367;48.714;8.994;2023-01-16T00:53:10;2.20;1.00
6662;DHT22;3367;48.714;8.994;2023-01-16T00:55:38;2.20;1.00
6662;DHT22;3367;48.714;8.994;2023-01-16T00:58:07;2.10;1.00
6662;DHT22;3367;48.714;8.994;2023-01-16T01:00:34;2.00;1.00
6662;DHT22;3367;48.714;8.994;2023-01-16T01:03:01;1.90;1.00
6662;DHT22;3367;48.714;8.994;2023-01-16T01:05:28;1.80;1.00
6662;DHT22;3367;48.714;8.994;2023-01-16T01:07:54;1.70;94.20
6662;DHT22;3367;48.714;8.994;2023-01-16T01:10:21;1.70;99.20
6662;DHT22;3367;48.714;8.994;2023-01-16T01:12:53;1.80;91.70
6662;DHT22;3367;48.714;8.994;2023-01-16T01:15:19;1.60;99.90
6662;DHT22;3367;48.714;8.994;2023-01-16T01:17:46;1.50;74.10
6662;DHT22;3367;48.714;8.994;2023-01-16T01:20:13;1.50;77.60
6662;DHT22;3367;48.714;8.994;2023-01-16T01:22:40;1.40;99.90
6662;DHT22;3367;48.714;8.994;2023-01-16T01:25:07;1.40;99.90
6662;DHT22;3367;48.714;8.994;2023-01-16T01:27:34;1.40;99.90
6662;DHT22;3367;48.714;8.994;2023-01-16T01:30:03;1.40;99.90
6662;DHT22;3367;48.714;8.994;2023-01-16T01:32:29;1.50;99.90
6662;DHT22;3367;48.714;8.994;2023-01-16T01:34:56;1.60;99.90
6662;DHT22;3367;48.714;8.994;2023-01-16T01:37:24;1.60;99.90
6662;DHT22;3367;48.714;8.994;2023-01-16T01:39:51;1.70;99.90
6662;DHT22;3367;48.714;8.994;2023-01-16T01:42:17;1.70;99.90
6662;DHT22;3367;48.714;8.994;2023-01-16T01:45:11;1.70;99.90
6662;DHT22;3367;48.714;8.994;2023-01-16T01:47:43;1.70;76.90
6662;DHT22;3367;48.714;8.994;2023-01-16T01:50:15;1.70;33.40
6662;DHT22;3367;48.714;8.994;2023-01-16T01:52:44;1.80;48.30
6662;DHT22;3367;48.714;8.994;2023-01-16T01:55:12;1.80;1.00
6662;DHT22;3367;48.714;8.994;2023-01-16T01:57:43;1.80;1.00
6662;DHT22;3367;48.714;8.994;2023-01-16T02:00:16;1.70;41.40
6662;DHT22;3367;48.714;8.994;2023-01-16T02:02:48;1.80;39.20
6662;DHT22;3367;48.714;8.994;2023-01-16T02:05:21;1.90;1.00
6662;DHT22;3367;48.714;8.994;2023-01-16T02:07:49;1.90;1.00
6662;DHT22;3367;48.714;8.994;2023-01-16T02:10:22;1.90;1.00
6662;DHT22;3367;48.714;8.994;2023-01-16T02:12:52;1.80;1.00
6662;DHT22;3367;48.714;8.994;2023-01-16T02:15:21;1.90;1.00
6662;DHT22;3367;48.714;8.994;2023-01-16T02:17:49;1.90;1.00
6662;DHT22;3367;48.714;8.994;2023-01-16T02:20:42;1.80;1.00
6662;DHT22;3367;48.714;8.994;2023-01-16T02:27:05;1.80;8.30
6662;DHT22;3367;48.714;8.994;2023-01-16T02:30:05;1.70;36.00
6662;DHT22;3367;48.714;8.994;2023-01-16T02:32:55;1.80;29.10
6662;DHT22;3367;48.714;8.994;2023-01-16T02:35:42;1.80;1.00
6662;DHT22;3367;48.714;8.994;2023-01-16T02:38:18;1.80;51.30
6662;DHT22;3367;48.714;8.994;2023-01-16T02:40:53;1.80;1.00
6662;DHT22;3367;48.714;8.994;2023-01-16T02:43:31;1.80;10.00
6662;DHT22;3367;48.714;8.994;2023-01-16T02:46:06;1.80;1.00
6662;DHT22;3367;48.714;8.994;2023-01-16T02:48:40;1.80;1.00
6662;DHT22;3367;48.714;8.994;2023-01-16T02:51:14;1.90;1.00
6662;DHT22;3367;48.714;8.994;2023-01-16T02:53:48;1.90;1.00
6662;DHT22;3367;48.714;8.994;2023-01-16T02:56:19;2.00;1.00
6662;DHT22;3367;48.714;8.994;2023-01-16T02:58:47;2.10;1.00
6662;DHT22;3367;48.714;8.994;2023-01-16T03:01:17;2.10;1.00
6662;DHT22;3367;48.714;8.994;2023-01-16T03:03:47;2.10;1.00
6662;DHT22;3367;48.714;8.994;2023-01-16T03:06:31;2.20;1.00
6662;DHT22;3367;48.714;8.994;2023-01-16T03:09:12;2.20;1.00
6662;DHT22;3367;48.714;8.994;2023-01-16T03:11:47;2.30;1.00
6662;DHT22;3367;48.714;8.994;2023-01-16T03:14:28;2.30;1.00
6662;DHT22;3367;48.714;8.994;2023-01-16T03:17:07;2.30;1.00
6662;DHT22;3367;48.714;8.994;2023-01-16T03:19:45;2.30;1.00
6662;DHT22;3367;48.714;8.994;2023-01-16T03:22:21;2.20;1.00
6662;DHT22;3367;48.714;8.994;2023-01-16T03:25:02;2.20;1.00
6662;DHT22;3367;48.714;8.994;2023-01-16T03:27:42;2.20;1.00
6662;DHT22;3367;48.714;8.994;2023-01-16T03:30:14;2.20;1.00
6662;DHT22;3367;48.714;8.994;2023-01-16T03:32:46;2.30;1.00
6662;DHT22;3367;48.714;8.994;2023-01-16T03:35:20;2.40;1.00
6662;DHT22;3367;48.714;8.994;2023-01-16T03:37:51;2.40;1.00
6662;DHT22;3367;48.714;8.994;2023-01-16T03:40:23;2.40;1.00
6662;DHT22;3367;48.714;8.994;2023-01-16T03:42:55;2.40;1.00
6662;DHT22;3367;48.714;8.994;2023-01-16T03:45:27;2.40;1.00
6662;DHT22;3367;48.714;8.994;2023-01-16T03:48:00;2.50;1.00
6662;DHT22;3367;48.714;8.994;2023-01-16T03:50:31;2.50;1.00
6662;DHT22;3367;48.714;8.994;2023-01-16T03:53:03;2.60;1.00
6662;DHT22;3367;48.714;8.994;2023-01-16T03:55:33;2.70;1.00
6662;DHT22;3367;48.714;8.994;2023-01-16T03:58:04;2.60;1.00
6662;DHT22;3367;48.714;8.994;2023-01-16T04:00:37;2.60;1.00
6662;DHT22;3367;48.714;8.994;2023-01-16T04:03:08;2.60;1.00
6662;DHT22;3367;48.714;8.994;2023-01-16T04:05:44;2.60;1.00
6662;DHT22;3367;48.714;8.994;2023-01-16T04:08:16;2.50;1.00
6662;DHT22;3367;48.714;8.994;2023-01-16T04:10:46;2.40;1.00
6662;DHT22;3367;48.714;8.994;2023-01-16T04:13:17;2.30;1.00
6662;DHT22;3367;48.714;8.994;2023-01-16T04:15:46;2.20;1.00
6662;DHT22;3367;48.714;8.994;2023-01-16T04:18:14;2.20;1.00
6662;DHT22;3367;48.714;8.994;2023-01-16T04:20:45;2.10;1.00
6662;DHT22;3367;48.714;8.994;2023-01-16T04:23:12;2.10;1.00
6662;DHT22;3367;48.714;8.994;2023-01-16T04:25:41;2.00;1.00
6662;DHT22;3367;48.714;8.994;2023-01-16T04:28:08;2.00;1.00
6662;DHT22;3367;48.714;8.994;2023-01-16T04:30:34;2.00;1.00
6662;DHT22;3367;48.714;8.994;2023-01-16T04:33:01;2.10;1.00
6662;DHT22;3367;48.714;8.994;2023-01-16T04:35:28;2.10;1.00
6662;DHT22;3367;48.714;8.994;2023-01-16T04:37:56;2.10;1.00
6662;DHT22;3367;48.714;8.994;2023-01-16T04:40:24;2.10;1.00
6662;DHT22;3367;48.714;8.994;2023-01-16T04:42:51;2.10;1.00
6662;DHT22;3367;48.714;8.994;2023-01-16T04:45:17;2.10;1.00
6662;DHT22;3367;48.714;8.994;2023-01-16T04:47:45;2.10;1.00
6662;DHT22;3367;48.714;8.994;2023-01-16T04:50:12;2.10;1.00
6662;DHT22;3367;48.714;8.994;2023-01-16T04:52:40;2.00;1.00
6662;DHT22;3367;48.714;8.994;2023-01-16T04:55:09;2.00;1.00
6662;DHT22;3367;48.714;8.994;2023-01-16T04:57:36;1.90;1.00
6662;DHT22;3367;48.714;8.994;2023-01-16T05:00:05;1.80;1.00
6662;DHT22;3367;48.714;8.994;2023-01-16T05:02:32;1.80;1.00
6662;DHT22;3367;48.714;8.994;2023-01-16T05:04:59;1.80;1.00
6662;DHT22;3367;48.714;8.994;2023-01-16T05:07:25;1.80;1.00
6662;DHT22;3367;48.714;8.994;2023-01-16T05:09:53;1.90;1.00
6662;DHT22;3367;48.714;8.994;2023-01-16T05:12:21;1.90;1.00
6662;DHT22;3367;48.714;8.994;2023-01-16T05:14:47;1.90;1.00
6662;DHT22;3367;48.714;8.994;2023-01-16T05:17:14;1.90;1.00
6662;DHT22;3367;48.714;8.994;2023-01-16T05:19:41;1.90;1.00
6662;DHT22;3367;48.714;8.994;2023-01-16T05:22:07;1.90;1.00
6662;DHT22;3367;48.714;8.994;2023-01-16T05:24:34;2.00;1.00
6662;DHT22;3367;48.714;8.994;2023-01-16T05:27:01;2.00;1.00
6662;DHT22;3367;48.714;8.994;2023-01-16T05:29:29;2.10;1.00
6662;DHT22;3367;48.714;8.994;2023-01-16T05:31:55;2.10;1.00
6662;DHT22;3367;48.714;8.994;2023-01-16T05:34:22;2.10;1.00
6662;DHT22;3367;48.714;8.994;2023-01-16T05:36:49;2.00;1.00
6662;DHT22;3367;48.714;8.994;2023-01-16T05:39:15;2.10;1.00
6662;DHT22;3367;48.714;8.994;2023-01-16T05:41:42;2.10;1.00
6662;DHT22;3367;48.714;8.994;2023-01-16T05:44:09;2.00;1.00
6662;DHT22;3367;48.714;8.994;2023-01-16T05:46:37;2.00;1.00
6662;DHT22;3367;48.714;8.994;2023-01-16T05:49:04;1.90;1.00
6662;DHT22;3367;48.714;8.994;2023-01-16T05:51:30;1.80;1.00
6662;DHT22;3367;48.714;8.994;2023-01-16T05:53:57;1.90;1.00
6662;DHT22;3367;48.714;8.994;2023-01-16T05:56:23;1.90;1.00
6662;DHT22;3367;48.714;8.994;2023-01-16T05:58:51;2.00;1.00
6662;DHT22;3367;48.714;8.994;2023-01-16T06:01:17;2.00;1.00
6662;DHT22;3367;48.714;8.994;2023-01-16T06:03:45;2.00;1.00
6662;DHT22;3367;48.714;8.994;2023-01-16T06:06:12;2.00;1.00
6662;DHT22;3367;48.714;8.994;2023-01-16T06:08:39;2.10;1.00
6662;DHT22;3367;48.714;8.994;2023-01-16T06:11:05;2.20;1.00
6662;DHT22;3367;48.714;8.994;2023-01-16T06:13:32;2.20;1.00
6662;DHT22;3367;48.714;8.994;2023-01-16T06:15:59;2.30;1.00
6662;DHT22;3367;48.714;8.994;2023-01-16T06:18:25;2.30;1.00
6662;DHT22;3367;48.714;8.994;2023-01-16T06:20:54;2.30;1.00
6662;DHT22;3367;48.714;8.994;2023-01-16T06:23:20;2.30;1.00
6662;DHT22;3367;48.714;8.994;2023-01-16T06:25:48;2.40;1.00
6662;DHT22;3367;48.714;8.994;2023-01-16T06:28:15;2.40;1.00
6662;DHT22;3367;48.714;8.994;2023-01-16T06:30:42;2.40;1.00
6662;DHT22;3367;48.714;8.994;2023-01-16T06:33:09;2.40;1.00
6662;DHT22;3367;48.714;8.994;2023-01-16T06:35:35;2.40;1.00
6662;DHT22;3367;48.714;8.994;2023-01-16T06:38:03;2.40;1.00
6662;DHT22;3367;48.714;8.994;2023-01-16T06:40:30;2.30;1.00
6662;DHT22;3367;48.714;8.994;2023-01-16T06:42:57;2.40;1.00
6662;DHT22;3367;48.714;8.994;2023-01-16T06:45:23;2.40;99.90
6662;DHT22;3367;48.714;8.994;2023-01-16T06:47:51;2.40;99.90
6662;DHT22;3367;48.714;8.994;2023-01-16T06:50:18;2.40;99.90
6662;DHT22;3367;48.714;8.994;2023-01-16T06:52:45;2.40;99.90
6662;DHT22;3367;48.714;8.994;2023-01-16T06:55:13;2.50;99.90
6662;DHT22;3367;48.714;8.994;2023-01-16T06:57:39;2.40;99.90
6662;DHT22;3367;48.714;8.994;2023-01-16T07:00:07;2.50;99.90
6662;DHT22;3367;48.714;8.994;2023-01-16T07:02:34;2.50;99.90
6662;DHT22;3367;48.714;8.994;2023-01-16T07:05:05;2.50;99.90
6662;DHT22;3367;48.714;8.994;2023-01-16T07:07:32;2.50;99.90
6662;DHT22;3367;48.714;8.994;2023-01-16T07:09:59;2.60;99.90
6662;DHT22;3367;48.714;8.994;2023-01-16T07:12:27;2.60;99.90
6662;DHT22;3367;48.714;8.994;2023-01-16T07:14:54;2.60;99.90
6662;DHT22;3367;48.714;8.994;2023-01-16T07:17:38;2.60;99.90
6662;DHT22;3367;48.714;8.994;2023-01-16T07:20:22;2.60;99.90
6662;DHT22;3367;48.714;8.994;2023-01-16T07:23:16;2.60;99.90
6662;DHT22;3367;48.714;8.994;2023-01-16T07:25:44;2.60;99.90
6662;DHT22;3367;48.714;8.994;2023-01-16T07:28:13;2.60;99.90
6662;DHT22;3367;48.714;8.994;2023-01-16T07:30:40;2.60;99.90
6662;DHT22;3367;48.714;8.994;2023-01-16T07:33:06;2.60;99.90
6662;DHT22;3367;48.714;8.994;2023-01-16T07:35:33;2.60;99.90
6662;DHT22;3367;48.714;8.994;2023-01-16T07:38:00;2.60;99.90
6662;DHT22;3367;48.714;8.994;2023-01-16T07:40:27;2.60;99.90
6662;DHT22;3367;48.714;8.994;2023-01-16T07:42:53;2.60;99.90
6662;DHT22;3367;48.714;8.994;2023-01-16T07:45:21;2.60;99.90
6662;DHT22;3367;48.714;8.994;2023-01-16T07:47:48;2.60;99.90
6662;DHT22;3367;48.714;8.994;2023-01-16T07:50:15;2.70;99.90
6662;DHT22;3367;48.714;8.994;2023-01-16T07:52:42;2.60;99.90
6662;DHT22;3367;48.714;8.994;2023-01-16T07:55:09;2.70;99.90
6662;DHT22;3367;48.714;8.994;2023-01-16T07:57:36;2.70;99.90
6662;DHT22;3367;48.714;8.994;2023-01-16T08:00:04;2.70;99.90
6662;DHT22;3367;48.714;8.994;2023-01-16T08:02:32;2.70;99.90
6662;DHT22;3367;48.714;8.994;2023-01-16T08:04:59;2.70;99.90
6662;DHT22;3367;48.714;8.994;2023-01-16T08:07:26;2.80;99.90
6662;DHT22;3367;48.714;8.994;2023-01-16T08:09:53;2.80;99.90
6662;DHT22;3367;48.714;8.994;2023-01-16T08:12:19;2.80;99.90
6662;DHT22;3367;48.714;8.994;2023-01-16T08:14:46;2.80;99.90
6662;DHT22;3367;48.714;8.994;2023-01-16T08:17:13;2.90;99.90
6662;DHT22;3367;48.714;8.994;2023-01-16T08:19:42;2.90;99.90
6662;DHT22;3367;48.714;8.994;2023-01-16T08:22:08;2.90;99.90
6662;DHT22;3367;48.714;8.994;2023-01-16T08:24:35;3.00;99.90
6662;DHT22;3367;48.714;8.994;2023-01-16T08:27:02;3.00;99.90
6662;DHT22;3367;48.714;8.994;2023-01-16T08:29:29;3.00;99.90
6662;DHT22;3367;48.714;8.994;2023-01-16T08:31:55;3.00;99.90
6662;DHT22;3367;48.714;8.994;2023-01-16T08:34:22;3.00;99.90
6662;DHT22;3367;48.714;8.994;2023-01-16T08:36:50;3.10;99.90
6662;DHT22;3367;48.714;8.994;2023-01-16T08:39:17;3.10;99.90
6662;DHT22;3367;48.714;8.994;2023-01-16T08:41:44;3.10;99.90
6662;DHT22;3367;48.714;8.994;2023-01-16T08:44:28;3.10;99.90
6662;DHT22;3367;48.714;8.994;2023-01-16T08:47:17;3.10;99.90
6662;DHT22;3367;48.714;8.994;2023-01-16T08:50:03;3.10;99.90
6662;DHT22;3367;48.714;8.994;2023-01-16T08:52:48;3.10;99.90
6662;DHT22;3367;48.714;8.994;2023-01-16T08:55:15;3.10;99.90
6662;DHT22;3367;48.714;8.994;2023-01-16T08:57:42;3.10;99.90
6662;DHT22;3367;48.714;8.994;2023-01-16T09:00:10;3.10;99.90
6662;DHT22;3367;48.714;8.994;2023-01-16T09:02:36;3.10;99.90
6662;DHT22;3367;48.714;8.994;2023-01-16T09:05:04;3.10;99.90
6662;DHT22;3367;48.714;8.994;2023-01-16T09:07:31;3.10;99.90
6662;DHT22;3367;48.714;8.994;2023-01-16T09:10:00;3.10;99.90
6662;DHT22;3367;48.714;8.994;2023-01-16T09:12:26;3.20;99.90
6662;DHT22;3367;48.714;8.994;2023-01-16T09:15:11;3.10;99.90
6662;DHT22;3367;48.714;8.994;2023-01-16T09:17:37;3.10;99.90
6662;DHT22;3367;48.714;8.994;2023-01-16T09:20:05;3.10;99.90
6662;DHT22;3367;48.714;8.994;2023-01-16T09:22:32;3.10;99.90
6662;DHT22;3367;48.714;8.994;2023-01-16T09:25:00;3.20;99.90
6662;DHT22;3367;48.714;8.994;2023-01-16T09:27:27;3.20;99.90
6662;DHT22;3367;48.714;8.994;2023-01-16T09:29:54;3.30;99.90
6662;DHT22;3367;48.714;8.994;2023-01-16T09:32:21;3.40;99.90
6662;DHT22;3367;48.714;8.994;2023-01-16T09:34:47;3.50;99.90
6662;DHT22;3367;48.714;8.994;2023-01-16T09:37:14;3.70;75.30
6662;DHT22;3367;48.714;8.994;2023-01-16T09:39:41;3.80;31.00
6662;DHT22;3367;48.714;8.994;2023-01-16T09:42:30;3.90;57.10
6662;DHT22;3367;48.714;8.994;2023-01-16T09:45:20;4.10;64.50
6662;DHT22;3367;48.714;8.994;2023-01-16T09:47:51;4.20;12.50
6662;DHT22;3367;48.714;8.994;2023-01-16T09:50:26;4.20;8.60
6662;DHT22;3367;48.714;8.994;2023-01-16T09:52:55;4.30;1.00
6662;DHT22;3367;48.714;8.994;2023-01-16T09:55:51;4.40;1.00
6662;DHT22;3367;48.714;8.994;2023-01-16T09:58:40;4.40;1.00
6662;DHT22;3367;48.714;8.994;2023-01-16T10:01:12;4.50;1.00
6662;DHT22;3367;48.714;8.994;2023-01-16T10:03:42;4.50;1.00
6662;DHT22;3367;48.714;8.994;2023-01-16T10:06:20;4.50;1.00
6662;DHT22;3367;48.714;8.994;2023-01-16T10:09:04;4.50;1.00
6662;DHT22;3367;48.714;8.994;2023-01-16T10:11:39;4.60;1.00
6662;DHT22;3367;48.714;8.994;2023-01-16T10:14:20;4.70;1.00
6662;DHT22;3367;48.714;8.994;2023-01-16T10:16:58;4.60;1.00
6662;DHT22;3367;48.714;8.994;2023-01-16T10:19:44;4.50;1.00
6662;DHT22;3367;48.714;8.994;2023-01-16T10:22:21;4.50;1.00
6662;DHT22;3367;48.714;8.994;2023-01-16T10:25:04;4.40;1.00
6662;DHT22;3367;48.714;8.994;2023-01-16T10:27:37;4.30;1.00
6662;DHT22;3367;48.714;8.994;2023-01-16T10:30:14;4.40;1.00
6662;DHT22;3367;48.714;8.994;2023-01-16T10:32:49;4.40;1.00
6662;DHT22;3367;48.714;8.994;2023-01-16T10:35:23;4.30;1.00
6662;DHT22;3367;48.714;8.994;2023-01-16T10:37:51;4.30;1.00
6662;DHT22;3367;48.714;8.994;2023-01-16T10:40:22;4.30;1.00
6662;DHT22;3367;48.714;8.994;2023-01-16T10:42:58;4.30;1.00
6662;DHT22;3367;48.714;8.994;2023-01-16T10:45:45;4.30;1.00
6662;DHT22;3367;48.714;8.994;2023-01-16T10:48:41;4.40;1.00
6662;DHT22;3367;48.714;8.994;2023-01-16T10:51:26;4.40;1.00
6662;DHT22;3367;48.714;8.994;2023-01-16T10:53:52;4.50;1.00
6662;DHT22;3367;48.714;8.994;2023-01-16T10:56:19;4.60;1.00
6662;DHT22;3367;48.714;8.994;2023-01-16T10:58:46;4.90;1.00
6662;DHT22;3367;48.714;8.994;2023-01-16T11:01:16;5.10;1.00
6662;DHT22;3367;48.714;8.994;2023-01-16T11:03:45;5.30;1.00
6662;DHT22;3367;48.714;8.994;2023-01-16T11:06:14;5.30;1.00
6662;DHT22;3367;48.714;8.994;2023-01-16T11:08:43;5.30;1.00
6662;DHT22;3367;48.714;8.994;2023-01-16T11:11:12;5.30;1.00
6662;DHT22;3367;48.714;8.994;2023-01-16T11:13:58;5.30;1.00
6662;DHT22;3367;48.714;8.994;2023-01-16T11:16:43;5.30;1.00
6662;DHT22;3367;48.714;8.994;2023-01-16T11:19:28;5.40;1.00
6662;DHT22;3367;48.714;8.994;2023-01-16T11:21:58;5.40;1.00
6662;DHT22;3367;48.714;8.994;2023-01-16T11:24:30;5.30;1.00
6662;DHT22;3367;48.714;8.994;2023-01-16T11:26:59;5.30;1.00
6662;DHT22;3367;48.714;8.994;2023-01-16T11:29:29;5.30;1.00
6662;DHT22;3367;48.714;8.994;2023-01-16T11:32:05;5.30;1.00
6662;DHT22;3367;48.714;8.994;2023-01-16T11:34:33;5.40;1.00
6662;DHT22;3367;48.714;8.994;2023-01-16T11:37:04;5.30;1.00
6662;DHT22;3367;48.714;8.994;2023-01-16T11:39:34;5.20;1.00
6662;DHT22;3367;48.714;8.994;2023-01-16T11:42:03;5.20;1.00
6662;DHT22;3367;48.714;8.994;2023-01-16T11:44:57;5.20;1.00
6662;DHT22;3367;48.714;8.994;2023-01-16T11:47:50;5.20;1.00
6662;DHT22;3367;48.714;8.994;2023-01-16T11:50:27;5.20;1.00
6662;DHT22;3367;48.714;8.994;2023-01-16T11:52:54;5.30;1.00
6662;DHT22;3367;48.714;8.994;2023-01-16T11:55:25;5.30;1.00
6662;DHT22;3367;48.714;8.994;2023-01-16T11:57:56;5.30;1.00
6662;DHT22;3367;48.714;8.994;2023-01-16T12:00:39;5.30;1.00
6662;DHT22;3367;48.714;8.994;2023-01-16T12:03:50;5.30;1.00
6662;DHT22;3367;48.714;8.994;2023-01-16T12:06:33;5.40;1.00
6662;DHT22;3367;48.714;8.994;2023-01-16T12:09:18;5.40;1.00
6662;DHT22;3367;48.714;8.994;2023-01-16T12:12:07;5.50;1.00
6662;DHT22;3367;48.714;8.994;2023-01-16T12:14:54;5.50;1.00
6662;DHT22;3367;48.714;8.994;2023-01-16T12:17:30;5.40;1.00
6662;DHT22;3367;48.714;8.994;2023-01-16T12:20:24;5.40;1.00
6662;DHT22;3367;48.714;8.994;2023-01-16T12:26:07;5.30;1.00
6662;DHT22;3367;48.714;8.994;2023-01-16T12:28:42;5.30;1.00
6662;DHT22;3367;48.714;8.994;2023-01-16T12:31:23;5.40;1.00
6662;DHT22;3367;48.714;8.994;2023-01-16T12:34:09;5.40;1.00
6662;DHT22;3367;48.714;8.994;2023-01-16T12:36:47;5.40;1.00
6662;DHT22;3367;48.714;8.994;2023-01-16T12:39:22;5.50;3.30
6662;DHT22;3367;48.714;8.994;2023-01-16T12:41:56;5.40;4.90
6662;DHT22;3367;48.714;8.994;2023-01-16T12:45:02;5.40;6.40
6662;DHT22;3367;48.714;8.994;2023-01-16T12:47:42;5.40;24.50
6662;DHT22;3367;48.714;8.994;2023-01-16T12:50:23;5.50;9.00
6662;DHT22;3367;48.714;8.994;2023-01-16T12:53:07;5.50;11.00
6662;DHT22;3367;48.714;8.994;2023-01-16T12:55:43;5.50;16.30
6662;DHT22;3367;48.714;8.994;2023-01-16T12:58:19;5.50;16.00
6662;DHT22;3367;48.714;8.994;2023-01-16T13:01:01;5.50;18.50
6662;DHT22;3367;48.714;8.994;2023-01-16T13:03:33;5.60;23.50
6662;DHT22;3367;48.714;8.994;2023-01-16T13:06:06;5.60;18.50
6662;DHT22;3367;48.714;8.994;2023-01-16T13:08:40;5.70;24.10
6662;DHT22;3367;48.714;8.994;2023-01-16T13:11:12;5.70;18.40
6662;DHT22;3367;48.714;8.994;2023-01-16T13:14:03;5.70;18.10
6662;DHT22;3367;48.714;8.994;2023-01-16T13:16:32;5.80;15.90
6662;DHT22;3367;48.714;8.994;2023-01-16T13:19:04;5.90;13.70
6662;DHT22;3367;48.714;8.994;2023-01-16T13:21:36;6.00;14.80
6662;DHT22;3367;48.714;8.994;2023-01-16T13:24:11;6.00;16.90
6662;DHT22;3367;48.714;8.994;2023-01-16T13:26:39;6.10;15.70
6662;DHT22;3367;48.714;8.994;2023-01-16T13:29:13;6.10;4.20
6662;DHT22;3367;48.714;8.994;2023-01-16T13:31:43;6.00;4.30
6662;DHT22;3367;48.714;8.994;2023-01-16T13:34:15;6.00;11.70
6662;DHT22;3367;48.714;8.994;2023-01-16T13:37:05;6.20;9.10
6662;DHT22;3367;48.714;8.994;2023-01-16T13:40:03;6.20;1.00
6662;DHT22;3367;48.714;8.994;2023-01-16T13:42:35;6.20;1.00
6662;DHT22;3367;48.714;8.994;2023-01-16T13:45:07;6.20;1.00
6662;DHT22;3367;48.714;8.994;2023-01-16T13:47:59;6.10;1.00
6662;DHT22;3367;48.714;8.994;2023-01-16T13:50:28;6.20;1.00
6662;DHT22;3367;48.714;8.994;2023-01-16T13:53:00;6.40;1.00
6662;DHT22;3367;48.714;8.994;2023-01-16T13:55:31;6.60;1.00
6662;DHT22;3367;48.714;8.994;2023-01-16T13:58:08;6.60;1.00
6662;DHT22;3367;48.714;8.994;2023-01-16T14:00:36;6.30;1.00
6662;DHT22;3367;48.714;8.994;2023-01-16T14:03:17;6.20;1.00
6662;DHT22;3367;48.714;8.994;2023-01-16T14:05:48;6.10;1.00
6662;DHT22;3367;48.714;8.994;2023-01-16T14:14:28;5.80;1.00
6662;DHT22;3367;48.714;8.994;2023-01-16T14:17:13;5.80;1.00
6662;DHT22;3367;48.714;8.994;2023-01-16T14:19:50;5.60;1.00
6662;DHT22;3367;48.714;8.994;2023-01-16T14:22:19;5.60;17.90
6662;DHT22;3367;48.714;8.994;2023-01-16T14:25:04;5.60;38.20
6662;DHT22;3367;48.714;8.994;2023-01-16T14:27:39;5.50;35.50
6662;DHT22;3367;48.714;8.994;2023-01-16T14:30:14;5.30;50.50
6662;DHT22;3367;48.714;8.994;2023-01-16T14:32:45;5.20;75.40
6662;DHT22;3367;48.714;8.994;2023-01-16T14:35:15;5.20;90.70
6662;DHT22;3367;48.714;8.994;2023-01-16T14:37:44;5.20;82.40
6662;DHT22;3367;48.714;8.994;2023-01-16T14:40:19;5.20;92.40
6662;DHT22;3367;48.714;8.994;2023-01-16T14:42:50;5.10;99.90
6662;DHT22;3367;48.714;8.994;2023-01-16T14:45:35;5.10;99.60
6662;DHT22;3367;48.714;8.994;2023-01-16T14:48:34;5.10;99.90
6662;DHT22;3367;48.714;8.994;2023-01-16T14:51:29;5.00;99.90
6662;DHT22;3367;48.714;8.994;2023-01-16T14:54:17;4.90;99.90
6662;DHT22;3367;48.714;8.994;2023-01-16T14:57:07;4.80;99.90
6662;DHT22;3367;48.714;8.994;2023-01-16T14:59:40;4.80;99.90
6662;DHT22;3367;48.714;8.994;2023-01-16T15:02:15;4.70;99.90
6662;DHT22;3367;48.714;8.994;2023-01-16T15:04:51;4.70;99.90
6662;DHT22;3367;48.714;8.994;2023-01-16T15:07:25;4.70;99.90
6662;DHT22;3367;48.714;8.994;2023-01-16T15:09:53;4.70;99.90
6662;DHT22;3367;48.714;8.994;2023-01-16T15:12:35;4.70;99.90
6662;DHT22;3367;48.714;8.994;2023-01-16T15:15:04;4.70;99.90
6662;DHT22;3367;48.714;8.994;2023-01-16T15:17:34;4.70;99.90
6662;DHT22;3367;48.714;8.994;2023-01-16T15:20:24;4.80;99.90
6662;DHT22;3367;48.714;8.994;2023-01-16T15:23:20;4.90;99.90
6662;DHT22;3367;48.714;8.994;2023-01-16T15:26:01;4.90;99.90
6662;DHT22;3367;48.714;8.994;2023-01-16T15:28:37;5.00;99.90
6662;DHT22;3367;48.714;8.994;2023-01-16T15:31:09;5.00;99.90
6662;DHT22;3367;48.714;8.994;2023-01-16T15:33:39;4.90;99.90
6662;DHT22;3367;48.714;8.994;2023-01-16T15:36:19;4.80;99.90
6662;DHT22;3367;48.714;8.994;2023-01-16T15:38:47;4.70;1.00
6662;DHT22;3367;48.714;8.994;2023-01-16T15:41:18;4.60;1.00
6662;DHT22;3367;48.714;8.994;2023-01-16T15:44:10;4.50;1.00
6662;DHT22;3367;48.714;8.994;2023-01-16T15:47:12;4.30;63.90
6662;DHT22;3367;48.714;8.994;2023-01-16T15:49:48;4.30;99.90
6662;DHT22;3367;48.714;8.994;2023-01-16T15:52:18;4.20;1.00
6662;DHT22;3367;48.714;8.994;2023-01-16T15:54:44;4.20;1.00
6662;DHT22;3367;48.714;8.994;2023-01-16T15:57:15;4.10;1.00
6662;DHT22;3367;48.714;8.994;2023-01-16T15:59:50;4.10;99.90
6662;DHT22;3367;48.714;8.994;2023-01-16T16:02:20;4.00;99.90
6662;DHT22;3367;48.714;8.994;2023-01-16T16:04:50;4.00;1.00
6662;DHT22;3367;48.714;8.994;2023-01-16T16:07:18;4.00;1.00
6662;DHT22;3367;48.714;8.994;2023-01-16T16:09:48;4.00;1.00
6662;DHT22;3367;48.714;8.994;2023-01-16T16:12:15;3.90;1.00
6662;DHT22;3367;48.714;8.994;2023-01-16T16:14:42;3.90;1.00
6662;DHT22;3367;48.714;8.994;2023-01-16T16:17:29;3.80;1.00
6662;DHT22;3367;48.714;8.994;2023-01-16T16:20:24;3.80;1.00
6662;DHT22;3367;48.714;8.994;2023-01-16T16:22:51;3.80;1.00
6662;DHT22;3367;48.714;8.994;2023-01-16T16:25:24;3.80;1.00
6662;DHT22;3367;48.714;8.994;2023-01-16T16:27:52;3.80;2.20
6662;DHT22;3367;48.714;8.994;2023-01-16T16:30:22;3.80;37.40
6662;DHT22;3367;48.714;8.994;2023-01-16T16:32:52;3.80;99.90
6662;DHT22;3367;48.714;8.994;2023-01-16T16:35:23;3.70;99.90
6662;DHT22;3367;48.714;8.994;2023-01-16T16:37:51;3.70;99.90
6662;DHT22;3367;48.714;8.994;2023-01-16T16:40:18;3.60;1.00
6662;DHT22;3367;48.714;8.994;2023-01-16T16:42:49;3.70;1.00
6662;DHT22;3367;48.714;8.994;2023-01-16T16:45:22;3.60;1.00
6662;DHT22;3367;48.714;8.994;2023-01-16T16:48:18;3.50;80.20
6662;DHT22;3367;48.714;8.994;2023-01-16T16:50:46;3.50;99.90
6662;DHT22;3367;48.714;8.994;2023-01-16T16:53:14;3.40;99.90
6662;DHT22;3367;48.714;8.994;2023-01-16T16:55:44;3.40;99.90
6662;DHT22;3367;48.714;8.994;2023-01-16T16:58:14;3.30;1.00
6662;DHT22;3367;48.714;8.994;2023-01-16T17:00:42;3.30;1.00
6662;DHT22;3367;48.714;8.994;2023-01-16T17:03:12;3.30;1.00
6662;DHT22;3367;48.714;8.994;2023-01-16T17:05:43;3.20;5.00
6662;DHT22;3367;48.714;8.994;2023-01-16T17:08:14;3.20;47.80
6662;DHT22;3367;48.714;8.994;2023-01-16T17:10:41;3.20;99.90
6662;DHT22;3367;48.714;8.994;2023-01-16T17:13:14;3.20;99.90
6662;DHT22;3367;48.714;8.994;2023-01-16T17:15:41;3.30;99.90